sensor_id;sensor_type;location;lat;lon;timestamp;temperature;humidity
9668;DHT22;4872;48.316;10.650;2022-07-23T04:08:49;20.70;99.90
9668;DHT22;4872;48.316;10.650;2022-07-23T04:11:15;20.70;99.90
9668;DHT22;4872;48.316;10.650;2022-07-23T04:13:42;20.80;99.90
9668;DHT22;4872;48.316;10.650;2022-07-23T04:16:09;20.80;99.90
9668;DHT22;4872;48.316;10.650;2022-07-23T04:18:35;20.70;99.90
9668;DHT22;4872;48.316;10.650;2022-07-23T04:21:02;20.70;99.90
9668;DHT22;4872;48.316;10.650;2022-07-23T04:23:29;20.70;99.90
9668;DHT22;4872;48.316;10.650;2022-07-23T04:25:57;20.70;99.90
9668;DHT22;4872;48.316;10.650;2022-07-23T04:28:24;20.70;99.90
9668;DHT22;4872;48.316;10.650;2022-07-23T04:30:50;20.70;99.90
9668;DHT22;4872;48.316;10.650;2022-07-23T04:33:17;20.70;99.90
9668;DHT22;4872;48.316;10.650;2022-07-23T04:35:44;20.70;99.90
9668;DHT22;4872;48.316;10.650;2022-07-23T04:38:11;20.70;99.90
9668;DHT22;4872;48.316;10.650;2022-07-23T04:40:38;20.70;99.90
9668;DHT22;4872;48.316;10.650;2022-07-23T04:43:06;20.70;99.90
9668;DHT22;4872;48.316;10.650;2022-07-23T04:45:32;20.80;99.90
9668;DHT22;4872;48.316;10.650;2022-07-23T04:47:59;20.70;99.90
9668;DHT22;4872;48.316;10.650;2022-07-23T04:50:26;20.80;99.90
9668;DHT22;4872;48.316;10.650;2022-07-23T04:52:53;20.80;99.90
9668;DHT22;4872;48.316;10.650;2022-07-23T04:55:19;20.70;99.90
9668;DHT22;4872;48.316;10.650;2022-07-23T04:57:46;20.70;99.90
9668;DHT22;4872;48.316;10.650;2022-07-23T05:00:15;20.70;99.90
9668;DHT22;4872;48.316;10.650;2022-07-23T05:02:42;20.70;99.90
9668;DHT22;4872;48.316;10.650;2022-07-23T05:05:09;20.80;99.90
9668;DHT22;4872;48.316;10.650;2022-07-23T05:07:35;20.80;99.90
9668;DHT22;4872;48.316;10.650;2022-07-23T05:10:02;20.80;99.90
9668;DHT22;4872;48.316;10.650;2022-07-23T05:12:29;20.70;99.90
9668;DHT22;4872;48.316;10.650;2022-07-23T05:14:56;20.70;99.90
9668;DHT22;4872;48.316;10.650;2022-07-23T05:17:24;20.70;99.90
9668;DHT22;4872;48.316;10.650;2022-07-23T05:19:50;20.70;99.90
9668;DHT22;4872;48.316;10.650;2022-07-23T05:22:17;20.80;99.90
9668;DHT22;4872;48.316;10.650;2022-07-23T05:24:44;20.80;99.90
9668;DHT22;4872;48.316;10.650;2022-07-23T05:27:10;20.80;99.90
9668;DHT22;4872;48.316;10.650;2022-07-23T05:29:37;20.80;99.90
9668;DHT22;4872;48.316;10.650;2022-07-23T05:32:04;20.90;99.90
9668;DHT22;4872;48.316;10.650;2022-07-23T05:34:33;20.90;99.90
9668;DHT22;4872;48.316;10.650;2022-07-23T05:36:59;20.80;99.90
9668;DHT22;4872;48.316;10.650;2022-07-23T05:39:26;20.90;99.90
9668;DHT22;4872;48.316;10.650;2022-07-23T05:41:53;20.90;99.90
9668;DHT22;4872;48.316;10.650;2022-07-23T05:44:19;20.90;99.90
9668;DHT22;4872;48.316;10.650;2022-07-23T05:46:47;20.90;99.90
9668;DHT22;4872;48.316;10.650;2022-07-23T05:49:14;21.00;99.90
9668;DHT22;4872;48.316;10.650;2022-07-23T05:51:42;20.90;99.90
9668;DHT22;4872;48.316;10.650;2022-07-23T05:54:09;20.70;99.90
9668;DHT22;4872;48.316;10.650;2022-07-23T05:56:36;20.50;99.90
9668;DHT22;4872;48.316;10.650;2022-07-23T05:59:02;20.50;99.90
9668;DHT22;4872;48.316;10.650;2022-07-23T06:01:29;20.50;99.90
9668;DHT22;4872;48.316;10.650;2022-07-23T06:03:56;20.30;99.90
9668;DHT22;4872;48.316;10.650;2022-07-23T06:06:22;20.20;99.90
9668;DHT22;4872;48.316;10.650;2022-07-23T06:08:50;20.10;99.90
9668;DHT22;4872;48.316;10.650;2022-07-23T06:11:17;20.10;99.90
9668;DHT22;4872;48.316;10.650;2022-07-23T06:13:44;20.10;99.90
9668;DHT22;4872;48.316;10.650;2022-07-23T06:16:11;20.10;99.90
9668;DHT22;4872;48.316;10.650;2022-07-23T06:18:37;20.10;99.90
9668;DHT22;4872;48.316;10.650;2022-07-23T06:21:04;20.10;99.90
9668;DHT22;4872;48.316;10.650;2022-07-23T06:23:31;20.20;99.90
9668;DHT22;4872;48.316;10.650;2022-07-23T06:25:59;20.30;99.90
9668;DHT22;4872;48.316;10.650;2022-07-23T06:28:26;20.40;99.90
9668;DHT22;4872;48.316;10.650;2022-07-23T06:30:52;20.50;99.90
9668;DHT22;4872;48.316;10.650;2022-07-23T06:33:19;20.50;99.90
9668;DHT22;4872;48.316;10.650;2022-07-23T06:35:46;20.50;99.90
9668;DHT22;4872;48.316;10.650;2022-07-23T06:38:12;20.60;99.90
9668;DHT22;4872;48.316;10.650;2022-07-23T06:40:39;20.60;99.90
9668;DHT22;4872;48.316;10.650;2022-07-23T06:43:07;20.70;99.90
9668;DHT22;4872;48.316;10.650;2022-07-23T06:45:34;20.60;99.90
9668;DHT22;4872;48.316;10.650;2022-07-23T06:48:00;20.60;99.90
9668;DHT22;4872;48.316;10.650;2022-07-23T06:50:28;20.60;99.90
9668;DHT22;4872;48.316;10.650;2022-07-23T06:52:55;20.60;99.90
9668;DHT22;4872;48.316;10.650;2022-07-23T06:55:21;20.60;99.90
9668;DHT22;4872;48.316;10.650;2022-07-23T06:57:48;20.60;99.90
9668;DHT22;4872;48.316;10.650;2022-07-23T07:00:16;20.70;99.90
9668;DHT22;4872;48.316;10.650;2022-07-23T07:02:43;20.70;99.90
9668;DHT22;4872;48.316;10.650;2022-07-23T07:05:10;20.80;99.90
9668;DHT22;4872;48.316;10.650;2022-07-23T07:07:36;20.90;99.90
9668;DHT22;4872;48.316;10.650;2022-07-23T07:10:07;21.00;99.90
9668;DHT22;4872;48.316;10.650;2022-07-23T07:12:33;21.00;99.90
9668;DHT22;4872;48.316;10.650;2022-07-23T07:15:00;21.00;99.90
9668;DHT22;4872;48.316;10.650;2022-07-23T07:17:28;21.10;99.90
9668;DHT22;4872;48.316;10.650;2022-07-23T07:19:55;21.10;99.90
9668;DHT22;4872;48.316;10.650;2022-07-23T07:22:22;21.10;99.90
9668;DHT22;4872;48.316;10.650;2022-07-23T07:24:48;21.20;99.90
9668;DHT22;4872;48.316;10.650;2022-07-23T07:27:15;21.10;99.90
9668;DHT22;4872;48.316;10.650;2022-07-23T07:29:42;21.00;99.90
9668;DHT22;4872;48.316;10.650;2022-07-23T07:32:08;21.10;99.90
9668;DHT22;4872;48.316;10.650;2022-07-23T07:34:36;21.20;99.90
9668;DHT22;4872;48.316;10.650;2022-07-23T07:37:03;21.20;99.90
9668;DHT22;4872;48.316;10.650;2022-07-23T07:39:30;21.30;99.90
9668;DHT22;4872;48.316;10.650;2022-07-23T07:41:57;21.20;99.90
9668;DHT22;4872;48.316;10.650;2022-07-23T07:44:23;21.30;99.90
9668;DHT22;4872;48.316;10.650;2022-07-23T07:46:50;21.30;99.90
9668;DHT22;4872;48.316;10.650;2022-07-23T07:49:18;21.30;99.90
9668;DHT22;4872;48.316;10.650;2022-07-23T07:51:46;21.30;99.90
9668;DHT22;4872;48.316;10.650;2022-07-23T07:54:13;21.40;99.90
9668;DHT22;4872;48.316;10.650;2022-07-23T07:56:40;21.40;99.90
9668;DHT22;4872;48.316;10.650;2022-07-23T07:59:06;21.50;99.90
9668;DHT22;4872;48.316;10.650;2022-07-23T08:01:33;21.50;99.90
9668;DHT22;4872;48.316;10.650;2022-07-23T08:04:00;21.60;99.90
9668;DHT22;4872;48.316;10.650;2022-07-23T08:06:26;21.70;99.90
9668;DHT22;4872;48.316;10.650;2022-07-23T08:09:07;21.70;99.90
9668;DHT22;4872;48.316;10.650;2022-07-23T08:11:38;21.80;99.90
9668;DHT22;4872;48.316;10.650;2022-07-23T08:14:05;21.90;99.90
9668;DHT22;4872;48.316;10.650;2022-07-23T08:16:31;22.00;99.90
9668;DHT22;4872;48.316;10.650;2022-07-23T08:18:58;22.10;99.90
9668;DHT22;4872;48.316;10.650;2022-07-23T08:21:25;22.20;99.90
9668;DHT22;4872;48.316;10.650;2022-07-23T08:23:51;22.30;99.90
9668;DHT22;4872;48.316;10.650;2022-07-23T08:26:19;22.40;99.90
9668;DHT22;4872;48.316;10.650;2022-07-23T08:28:46;22.40;99.90
9668;DHT22;4872;48.316;10.650;2022-07-23T08:31:13;22.40;99.90
9668;DHT22;4872;48.316;10.650;2022-07-23T08:33:41;22.40;99.90
9668;DHT22;4872;48.316;10.650;2022-07-23T08:36:08;22.50;99.90
9668;DHT22;4872;48.316;10.650;2022-07-23T08:38:35;22.60;99.90
9668;DHT22;4872;48.316;10.650;2022-07-23T08:41:07;22.60;99.90
9668;DHT22;4872;48.316;10.650;2022-07-23T08:43:36;22.70;99.90
9668;DHT22;4872;48.316;10.650;2022-07-23T08:46:03;22.90;99.90
9668;DHT22;4872;48.316;10.650;2022-07-23T08:48:32;23.00;99.90
9668;DHT22;4872;48.316;10.650;2022-07-23T08:51:00;23.20;99.90
9668;DHT22;4872;48.316;10.650;2022-07-23T08:53:28;23.20;99.90
9668;DHT22;4872;48.316;10.650;2022-07-23T08:55:57;23.30;99.90
9668;DHT22;4872;48.316;10.650;2022-07-23T08:58:24;23.40;99.90
9668;DHT22;4872;48.316;10.650;2022-07-23T09:00:53;23.50;99.90
9668;DHT22;4872;48.316;10.650;2022-07-23T09:03:22;23.70;99.70
9668;DHT22;4872;48.316;10.650;2022-07-23T09:05:50;23.90;99.70
9668;DHT22;4872;48.316;10.650;2022-07-23T09:08:18;24.00;99.90
9668;DHT22;4872;48.316;10.650;2022-07-23T09:10:49;24.00;98.80
9668;DHT22;4872;48.316;10.650;2022-07-23T09:13:25;24.00;98.70
9668;DHT22;4872;48.316;10.650;2022-07-23T09:15:56;24.20;98.00
9668;DHT22;4872;48.316;10.650;2022-07-23T09:18:40;24.20;97.70
9668;DHT22;4872;48.316;10.650;2022-07-23T09:21:12;24.20;98.10
9668;DHT22;4872;48.316;10.650;2022-07-23T09:23:40;24.40;97.80
9668;DHT22;4872;48.316;10.650;2022-07-23T09:26:34;24.40;97.80
9668;DHT22;4872;48.316;10.650;2022-07-23T09:29:08;24.50;97.50
9668;DHT22;4872;48.316;10.650;2022-07-23T09:31:48;24.60;97.80
9668;DHT22;4872;48.316;10.650;2022-07-23T09:34:17;24.70;97.30
9668;DHT22;4872;48.316;10.650;2022-07-23T09:36:45;24.80;97.30
9668;DHT22;4872;48.316;10.650;2022-07-23T09:39:13;24.90;96.10
9668;DHT22;4872;48.316;10.650;2022-07-23T09:41:41;25.00;96.20
9668;DHT22;4872;48.316;10.650;2022-07-23T09:44:13;25.10;96.20
9668;DHT22;4872;48.316;10.650;2022-07-23T09:46:43;25.20;95.30
9668;DHT22;4872;48.316;10.650;2022-07-23T09:49:15;25.20;94.20
9668;DHT22;4872;48.316;10.650;2022-07-23T09:51:50;25.20;94.40
9668;DHT22;4872;48.316;10.650;2022-07-23T09:54:25;25.20;93.80
9668;DHT22;4872;48.316;10.650;2022-07-23T09:56:54;25.20;94.20
9668;DHT22;4872;48.316;10.650;2022-07-23T09:59:24;25.20;94.10
9668;DHT22;4872;48.316;10.650;2022-07-23T10:01:56;25.30;93.90
9668;DHT22;4872;48.316;10.650;2022-07-23T10:04:28;25.30;93.40
9668;DHT22;4872;48.316;10.650;2022-07-23T10:06:57;25.30;92.60
9668;DHT22;4872;48.316;10.650;2022-07-23T10:09:26;25.30;92.40
9668;DHT22;4872;48.316;10.650;2022-07-23T10:11:58;25.20;93.00
9668;DHT22;4872;48.316;10.650;2022-07-23T10:14:39;25.20;92.90
9668;DHT22;4872;48.316;10.650;2022-07-23T10:17:11;25.20;93.20
9668;DHT22;4872;48.316;10.650;2022-07-23T10:19:39;25.30;93.40
9668;DHT22;4872;48.316;10.650;2022-07-23T10:22:08;25.50;92.40
9668;DHT22;4872;48.316;10.650;2022-07-23T10:24:47;25.60;92.70
9668;DHT22;4872;48.316;10.650;2022-07-23T10:27:43;25.70;91.90
9668;DHT22;4872;48.316;10.650;2022-07-23T10:30:18;25.70;92.10
9668;DHT22;4872;48.316;10.650;2022-07-23T10:32:55;25.80;92.20
9668;DHT22;4872;48.316;10.650;2022-07-23T10:35:31;25.90;91.80
9668;DHT22;4872;48.316;10.650;2022-07-23T10:38:10;25.90;91.40
9668;DHT22;4872;48.316;10.650;2022-07-23T10:40:37;25.90;91.10
9668;DHT22;4872;48.316;10.650;2022-07-23T10:43:16;25.80;91.60
9668;DHT22;4872;48.316;10.650;2022-07-23T10:45:43;25.90;91.00
9668;DHT22;4872;48.316;10.650;2022-07-23T10:48:16;26.00;91.30
9668;DHT22;4872;48.316;10.650;2022-07-23T10:53:26;26.00;91.20
9668;DHT22;4872;48.316;10.650;2022-07-23T10:55:53;25.90;91.30
9668;DHT22;4872;48.316;10.650;2022-07-23T10:58:23;26.00;91.70
9668;DHT22;4872;48.316;10.650;2022-07-23T11:01:34;26.10;91.70
9668;DHT22;4872;48.316;10.650;2022-07-23T11:04:03;26.10;91.30
9668;DHT22;4872;48.316;10.650;2022-07-23T11:07:06;26.10;91.60
9668;DHT22;4872;48.316;10.650;2022-07-23T11:09:39;26.40;91.40
9668;DHT22;4872;48.316;10.650;2022-07-23T11:12:37;26.40;91.30
9668;DHT22;4872;48.316;10.650;2022-07-23T11:15:06;26.50;91.20
9668;DHT22;4872;48.316;10.650;2022-07-23T11:17:35;26.40;91.50
9668;DHT22;4872;48.316;10.650;2022-07-23T11:20:21;26.40;91.60
9668;DHT22;4872;48.316;10.650;2022-07-23T11:22:50;26.40;90.90
9668;DHT22;4872;48.316;10.650;2022-07-23T11:25:33;26.40;91.10
9668;DHT22;4872;48.316;10.650;2022-07-23T11:28:11;26.60;90.50
9668;DHT22;4872;48.316;10.650;2022-07-23T11:30:40;26.70;90.70
9668;DHT22;4872;48.316;10.650;2022-07-23T11:33:18;26.70;90.60
9668;DHT22;4872;48.316;10.650;2022-07-23T11:35:48;26.70;90.50
9668;DHT22;4872;48.316;10.650;2022-07-23T11:38:17;26.70;90.50
9668;DHT22;4872;48.316;10.650;2022-07-23T11:40:47;26.70;90.70
9668;DHT22;4872;48.316;10.650;2022-07-23T11:43:14;26.60;90.50
9668;DHT22;4872;48.316;10.650;2022-07-23T11:45:42;26.60;90.60
9668;DHT22;4872;48.316;10.650;2022-07-23T11:48:16;26.60;90.20
9668;DHT22;4872;48.316;10.650;2022-07-23T11:50:43;26.70;90.90
9668;DHT22;4872;48.316;10.650;2022-07-23T11:53:11;26.80;90.50
9668;DHT22;4872;48.316;10.650;2022-07-23T11:55:38;26.90;90.50
9668;DHT22;4872;48.316;10.650;2022-07-23T11:58:05;27.00;90.10
9668;DHT22;4872;48.316;10.650;2022-07-23T12:00:32;27.00;90.00
9668;DHT22;4872;48.316;10.650;2022-07-23T12:03:01;26.90;89.10
9668;DHT22;4872;48.316;10.650;2022-07-23T12:05:31;26.80;90.00
9668;DHT22;4872;48.316;10.650;2022-07-23T12:07:59;26.70;89.50
9668;DHT22;4872;48.316;10.650;2022-07-23T12:10:29;26.70;90.00
9668;DHT22;4872;48.316;10.650;2022-07-23T12:12:58;26.80;90.00
9668;DHT22;4872;48.316;10.650;2022-07-23T12:15:30;26.90;89.20
9668;DHT22;4872;48.316;10.650;2022-07-23T12:17:58;27.00;89.20
9668;DHT22;4872;48.316;10.650;2022-07-23T12:20:28;27.00;88.20
9668;DHT22;4872;48.316;10.650;2022-07-23T12:22:57;27.20;87.60
9668;DHT22;4872;48.316;10.650;2022-07-23T12:25:26;27.30;87.30
9668;DHT22;4872;48.316;10.650;2022-07-23T12:28:05;27.30;87.00
9668;DHT22;4872;48.316;10.650;2022-07-23T12:30:34;27.40;87.40
9668;DHT22;4872;48.316;10.650;2022-07-23T12:33:04;27.50;86.40
9668;DHT22;4872;48.316;10.650;2022-07-23T12:35:34;27.50;87.30
9668;DHT22;4872;48.316;10.650;2022-07-23T12:38:04;27.60;87.50
9668;DHT22;4872;48.316;10.650;2022-07-23T12:40:32;27.70;87.00
9668;DHT22;4872;48.316;10.650;2022-07-23T12:43:02;27.90;87.20
9668;DHT22;4872;48.316;10.650;2022-07-23T12:45:43;27.80;86.90
9668;DHT22;4872;48.316;10.650;2022-07-23T12:48:16;27.70;87.40
9668;DHT22;4872;48.316;10.650;2022-07-23T12:50:49;27.70;87.90
9668;DHT22;4872;48.316;10.650;2022-07-23T12:53:17;27.70;87.40
9668;DHT22;4872;48.316;10.650;2022-07-23T12:55:46;27.50;87.40
9668;DHT22;4872;48.316;10.650;2022-07-23T12:58:15;27.50;87.70
9668;DHT22;4872;48.316;10.650;2022-07-23T13:01:07;27.40;88.10
9668;DHT22;4872;48.316;10.650;2022-07-23T13:03:36;27.50;88.00
9668;DHT22;4872;48.316;10.650;2022-07-23T13:06:06;27.60;86.90
9668;DHT22;4872;48.316;10.650;2022-07-23T13:08:34;27.60;87.20
9668;DHT22;4872;48.316;10.650;2022-07-23T13:11:01;27.70;86.70
9668;DHT22;4872;48.316;10.650;2022-07-23T13:13:30;27.60;86.90
9668;DHT22;4872;48.316;10.650;2022-07-23T13:15:57;27.60;86.60
9668;DHT22;4872;48.316;10.650;2022-07-23T13:18:26;28.00;86.10
9668;DHT22;4872;48.316;10.650;2022-07-23T13:20:54;28.40;85.00
9668;DHT22;4872;48.316;10.650;2022-07-23T13:23:22;28.60;84.50
9668;DHT22;4872;48.316;10.650;2022-07-23T13:25:49;28.90;84.40
9668;DHT22;4872;48.316;10.650;2022-07-23T13:28:17;29.10;82.80
9668;DHT22;4872;48.316;10.650;2022-07-23T13:30:45;29.30;82.40
9668;DHT22;4872;48.316;10.650;2022-07-23T13:33:13;29.30;81.40
9668;DHT22;4872;48.316;10.650;2022-07-23T13:35:41;29.40;81.50
9668;DHT22;4872;48.316;10.650;2022-07-23T13:38:08;29.50;80.50
9668;DHT22;4872;48.316;10.650;2022-07-23T13:40:36;29.30;79.30
9668;DHT22;4872;48.316;10.650;2022-07-23T13:43:04;28.90;78.90
9668;DHT22;4872;48.316;10.650;2022-07-23T13:45:31;28.50;82.30
9668;DHT22;4872;48.316;10.650;2022-07-23T13:47:57;28.20;83.90
9668;DHT22;4872;48.316;10.650;2022-07-23T13:50:24;28.00;84.10
9668;DHT22;4872;48.316;10.650;2022-07-23T13:52:52;27.90;85.10
9668;DHT22;4872;48.316;10.650;2022-07-23T13:55:19;28.10;86.70
9668;DHT22;4872;48.316;10.650;2022-07-23T13:57:45;28.30;86.00
9668;DHT22;4872;48.316;10.650;2022-07-23T14:00:13;28.40;86.20
9668;DHT22;4872;48.316;10.650;2022-07-23T14:02:40;28.70;87.10
9668;DHT22;4872;48.316;10.650;2022-07-23T14:05:09;29.10;86.30
9668;DHT22;4872;48.316;10.650;2022-07-23T14:07:37;29.40;82.40
9668;DHT22;4872;48.316;10.650;2022-07-23T14:10:07;29.80;80.90
9668;DHT22;4872;48.316;10.650;2022-07-23T14:12:34;29.50;77.80
9668;DHT22;4872;48.316;10.650;2022-07-23T14:15:02;29.50;78.50
9668;DHT22;4872;48.316;10.650;2022-07-23T14:17:29;29.70;79.00
9668;DHT22;4872;48.316;10.650;2022-07-23T14:19:57;29.70;78.00
9668;DHT22;4872;48.316;10.650;2022-07-23T14:22:23;29.40;77.20
9668;DHT22;4872;48.316;10.650;2022-07-23T14:24:50;29.10;79.20
9668;DHT22;4872;48.316;10.650;2022-07-23T14:27:18;29.50;78.60
9668;DHT22;4872;48.316;10.650;2022-07-23T14:29:45;29.50;78.40
9668;DHT22;4872;48.316;10.650;2022-07-23T14:32:12;29.10;77.90
9668;DHT22;4872;48.316;10.650;2022-07-23T14:34:38;28.90;77.20
9668;DHT22;4872;48.316;10.650;2022-07-23T14:37:05;29.10;79.00
9668;DHT22;4872;48.316;10.650;2022-07-23T14:39:32;29.00;77.90
9668;DHT22;4872;48.316;10.650;2022-07-23T14:41:59;28.70;78.80
9668;DHT22;4872;48.316;10.650;2022-07-23T14:44:30;28.30;79.60
9668;DHT22;4872;48.316;10.650;2022-07-23T14:46:57;28.10;80.20
9668;DHT22;4872;48.316;10.650;2022-07-23T14:49:25;27.90;81.00
9668;DHT22;4872;48.316;10.650;2022-07-23T14:51:52;27.60;79.10
9668;DHT22;4872;48.316;10.650;2022-07-23T14:54:18;27.50;80.30
9668;DHT22;4872;48.316;10.650;2022-07-23T14:56:46;27.40;81.30
9668;DHT22;4872;48.316;10.650;2022-07-23T14:59:13;27.30;81.90
9668;DHT22;4872;48.316;10.650;2022-07-23T15:01:41;27.20;81.70
9668;DHT22;4872;48.316;10.650;2022-07-23T15:04:08;27.10;81.60
9668;DHT22;4872;48.316;10.650;2022-07-23T15:06:35;27.10;81.30
9668;DHT22;4872;48.316;10.650;2022-07-23T15:09:02;27.00;80.90
9668;DHT22;4872;48.316;10.650;2022-07-23T15:11:28;27.00;81.30
9668;DHT22;4872;48.316;10.650;2022-07-23T15:13:59;26.70;81.40
9668;DHT22;4872;48.316;10.650;2022-07-23T15:16:26;26.70;81.90
9668;DHT22;4872;48.316;10.650;2022-07-23T15:18:54;26.50;82.00
9668;DHT22;4872;48.316;10.650;2022-07-23T15:21:21;26.40;82.90
9668;DHT22;4872;48.316;10.650;2022-07-23T15:23:48;26.30;83.20
9668;DHT22;4872;48.316;10.650;2022-07-23T15:26:15;26.30;84.10
9668;DHT22;4872;48.316;10.650;2022-07-23T15:28:43;26.30;83.80
9668;DHT22;4872;48.316;10.650;2022-07-23T15:31:10;26.20;84.50
9668;DHT22;4872;48.316;10.650;2022-07-23T15:33:37;26.30;85.30
9668;DHT22;4872;48.316;10.650;2022-07-23T15:36:07;26.20;85.80
9668;DHT22;4872;48.316;10.650;2022-07-23T15:38:35;26.30;86.40
9668;DHT22;4872;48.316;10.650;2022-07-23T15:41:01;26.50;86.50
9668;DHT22;4872;48.316;10.650;2022-07-23T15:43:29;27.30;87.30
9668;DHT22;4872;48.316;10.650;2022-07-23T15:45:56;28.20;84.50
9668;DHT22;4872;48.316;10.650;2022-07-23T15:48:23;29.30;83.90
9668;DHT22;4872;48.316;10.650;2022-07-23T15:50:50;30.20;77.50
9668;DHT22;4872;48.316;10.650;2022-07-23T15:53:18;31.10;76.80
9668;DHT22;4872;48.316;10.650;2022-07-23T15:55:46;31.70;72.00
9668;DHT22;4872;48.316;10.650;2022-07-23T15:58:13;31.80;72.00
9668;DHT22;4872;48.316;10.650;2022-07-23T16:00:41;32.30;69.30
9668;DHT22;4872;48.316;10.650;2022-07-23T16:03:07;32.70;66.60
9668;DHT22;4872;48.316;10.650;2022-07-23T16:05:34;33.30;65.20
9668;DHT22;4872;48.316;10.650;2022-07-23T16:08:03;34.00;63.40
9668;DHT22;4872;48.316;10.650;2022-07-23T16:10:31;34.30;60.70
9668;DHT22;4872;48.316;10.650;2022-07-23T16:12:58;34.70;59.10
9668;DHT22;4872;48.316;10.650;2022-07-23T16:15:25;34.90;58.30
9668;DHT22;4872;48.316;10.650;2022-07-23T16:17:52;35.00;58.30
9668;DHT22;4872;48.316;10.650;2022-07-23T16:20:19;35.10;58.60
9668;DHT22;4872;48.316;10.650;2022-07-23T16:22:46;35.30;59.20
9668;DHT22;4872;48.316;10.650;2022-07-23T16:25:13;35.70;58.90
9668;DHT22;4872;48.316;10.650;2022-07-23T16:27:41;35.70;58.50
9668;DHT22;4872;48.316;10.650;2022-07-23T16:30:11;35.70;57.40
9668;DHT22;4872;48.316;10.650;2022-07-23T16:32:38;35.50;57.50
9668;DHT22;4872;48.316;10.650;2022-07-23T16:35:05;35.60;58.40
9668;DHT22;4872;48.316;10.650;2022-07-23T16:37:33;35.60;58.40
9668;DHT22;4872;48.316;10.650;2022-07-23T16:40:00;35.80;57.60
9668;DHT22;4872;48.316;10.650;2022-07-23T16:42:27;36.10;55.70
9668;DHT22;4872;48.316;10.650;2022-07-23T16:44:55;36.40;54.50
9668;DHT22;4872;48.316;10.650;2022-07-23T16:47:23;36.70;53.80
9668;DHT22;4872;48.316;10.650;2022-07-23T16:49:49;36.90;53.50
9668;DHT22;4872;48.316;10.650;2022-07-23T16:52:16;37.10;53.30
9668;DHT22;4872;48.316;10.650;2022-07-23T16:54:43;37.20;52.60
9668;DHT22;4872;48.316;10.650;2022-07-23T16:57:10;37.10;51.80
9668;DHT22;4872;48.316;10.650;2022-07-23T16:59:37;36.30;52.40
9668;DHT22;4872;48.316;10.650;2022-07-23T17:02:05;36.50;51.90
9668;DHT22;4872;48.316;10.650;2022-07-23T17:04:32;36.60;51.90
9668;DHT22;4872;48.316;10.650;2022-07-23T17:06:58;36.70;51.30
9668;DHT22;4872;48.316;10.650;2022-07-23T17:09:28;36.80;51.50
9668;DHT22;4872;48.316;10.650;2022-07-23T17:11:55;36.80;51.40
9668;DHT22;4872;48.316;10.650;2022-07-23T17:14:30;36.70;51.50
9668;DHT22;4872;48.316;10.650;2022-07-23T17:16:57;36.50;50.90
9668;DHT22;4872;48.316;10.650;2022-07-23T17:19:26;36.30;51.40
9668;DHT22;4872;48.316;10.650;2022-07-23T17:21:52;35.80;52.30
9668;DHT22;4872;48.316;10.650;2022-07-23T17:24:19;35.70;52.60
9668;DHT22;4872;48.316;10.650;2022-07-23T17:26:46;35.40;52.90
9668;DHT22;4872;48.316;10.650;2022-07-23T17:29:13;35.10;53.40
9668;DHT22;4872;48.316;10.650;2022-07-23T17:31:40;34.60;54.50
9668;DHT22;4872;48.316;10.650;2022-07-23T17:34:07;34.30;55.30
9668;DHT22;4872;48.316;10.650;2022-07-23T17:36:36;33.70;56.30
9668;DHT22;4872;48.316;10.650;2022-07-23T17:39:04;33.10;57.10
9668;DHT22;4872;48.316;10.650;2022-07-23T17:41:31;32.70;57.50
9668;DHT22;4872;48.316;10.650;2022-07-23T17:43:58;32.30;57.80
9668;DHT22;4872;48.316;10.650;2022-07-23T17:46:25;31.90;57.60
9668;DHT22;4872;48.316;10.650;2022-07-23T17:48:52;31.40;58.40
9668;DHT22;4872;48.316;10.650;2022-07-23T17:51:19;30.90;58.90
9668;DHT22;4872;48.316;10.650;2022-07-23T17:53:47;30.50;59.40
9668;DHT22;4872;48.316;10.650;2022-07-23T17:56:14;30.10;59.90
9668;DHT22;4872;48.316;10.650;2022-07-23T17:58:40;29.80;60.70
9668;DHT22;4872;48.316;10.650;2022-07-23T18:01:07;29.50;61.30
9668;DHT22;4872;48.316;10.650;2022-07-23T18:03:34;29.30;61.90
9668;DHT22;4872;48.316;10.650;2022-07-23T18:06:01;29.00;62.40
9668;DHT22;4872;48.316;10.650;2022-07-23T18:08:28;28.80;62.90
9668;DHT22;4872;48.316;10.650;2022-07-23T18:10:56;28.80;63.30
9668;DHT22;4872;48.316;10.650;2022-07-23T18:13:23;28.50;63.80
9668;DHT22;4872;48.316;10.650;2022-07-23T18:15:49;28.30;64.50
9668;DHT22;4872;48.316;10.650;2022-07-23T18:18:16;28.30;64.80
9668;DHT22;4872;48.316;10.650;2022-07-23T18:20:43;28.10;65.30
9668;DHT22;4872;48.316;10.650;2022-07-23T18:23:09;28.10;65.40
9668;DHT22;4872;48.316;10.650;2022-07-23T18:25:37;27.90;65.70
9668;DHT22;4872;48.316;10.650;2022-07-23T18:28:05;27.80;66.00
9668;DHT22;4872;48.316;10.650;2022-07-23T18:30:33;27.70;66.40
9668;DHT22;4872;48.316;10.650;2022-07-23T18:32:59;27.70;66.90
9668;DHT22;4872;48.316;10.650;2022-07-23T18:35:26;27.60;67.50
9668;DHT22;4872;48.316;10.650;2022-07-23T18:37:53;27.40;67.70
9668;DHT22;4872;48.316;10.650;2022-07-23T18:40:20;27.30;68.30
9668;DHT22;4872;48.316;10.650;2022-07-23T18:42:47;27.10;68.80
9668;DHT22;4872;48.316;10.650;2022-07-23T18:45:15;27.10;69.30
9668;DHT22;4872;48.316;10.650;2022-07-23T18:47:42;26.90;69.90
9668;DHT22;4872;48.316;10.650;2022-07-23T18:50:11;26.70;70.50
9668;DHT22;4872;48.316;10.650;2022-07-23T18:52:38;26.70;70.90
9668;DHT22;4872;48.316;10.650;2022-07-23T18:55:06;26.60;71.10
9668;DHT22;4872;48.316;10.650;2022-07-23T18:57:32;26.50;71.20
9668;DHT22;4872;48.316;10.650;2022-07-23T18:59:59;26.40;71.70
9668;DHT22;4872;48.316;10.650;2022-07-23T19:02:27;26.30;72.30
9668;DHT22;4872;48.316;10.650;2022-07-23T19:04:55;26.20;72.70
9668;DHT22;4872;48.316;10.650;2022-07-23T19:07:22;26.20;73.80
9668;DHT22;4872;48.316;10.650;2022-07-23T19:09:48;26.00;73.50
9668;DHT22;4872;48.316;10.650;2022-07-23T19:12:15;26.00;74.00
9668;DHT22;4872;48.316;10.650;2022-07-23T19:14:42;26.00;74.50
9668;DHT22;4872;48.316;10.650;2022-07-23T19:17:09;25.90;75.20
9668;DHT22;4872;48.316;10.650;2022-07-23T19:19:37;25.80;76.00
9668;DHT22;4872;48.316;10.650;2022-07-23T19:22:03;25.80;76.70
9668;DHT22;4872;48.316;10.650;2022-07-23T19:24:32;25.70;77.30
9668;DHT22;4872;48.316;10.650;2022-07-23T19:26:59;25.70;77.80
9668;DHT22;4872;48.316;10.650;2022-07-23T19:29:26;25.60;78.00
9668;DHT22;4872;48.316;10.650;2022-07-23T19:31:53;25.50;78.40
9668;DHT22;4872;48.316;10.650;2022-07-23T19:34:19;25.50;78.60
9668;DHT22;4872;48.316;10.650;2022-07-23T19:36:47;25.40;78.60
9668;DHT22;4872;48.316;10.650;2022-07-23T19:39:14;25.40;78.90
9668;DHT22;4872;48.316;10.650;2022-07-23T19:41:41;25.50;79.40
9668;DHT22;4872;48.316;10.650;2022-07-23T19:44:08;25.40;80.00
9668;DHT22;4872;48.316;10.650;2022-07-23T19:46:34;25.30;80.40
9668;DHT22;4872;48.316;10.650;2022-07-23T19:49:01;25.20;80.90
9668;DHT22;4872;48.316;10.650;2022-07-23T19:51:28;25.20;81.60
9668;DHT22;4872;48.316;10.650;2022-07-23T19:53:56;25.10;82.00
9668;DHT22;4872;48.316;10.650;2022-07-23T19:56:23;25.00;82.40
9668;DHT22;4872;48.316;10.650;2022-07-23T19:58:50;25.00;83.10
9668;DHT22;4872;48.316;10.650;2022-07-23T20:01:17;24.90;83.80
9668;DHT22;4872;48.316;10.650;2022-07-23T20:03:44;24.90;84.20